Time;durP1;ratioP1;P1;durP2;ratioP2;P2;SDS_P1;SDS_P2;PMS_P1;PMS_P2;Temp;Humidity;BMP_temperature;BMP_pressure;BME280_temperature;BME280_humidity;BME280_pressure;Samples;Min_cycle;Max_cycle;Signal;HPM_P1;HPM_P2
2022/10/30 00:01:15;;;;;;;15.25;7.72;;;16.90;99.90;;;;;;5074171;28;20086;-79
2022/10/30 00:03:40;;;;;;;12.98;7.90;;;16.80;99.90;;;;;;5075445;28;20074;-79
2022/10/30 00:06:06;;;;;;;14.60;7.55;;;16.80;99.90;;;;;;5076031;28;20056;-78
2022/10/30 00:08:32;;;;;;;17.63;8.23;;;16.70;99.90;;;;;;5076061;28;20028;-78
2022/10/30 00:11:08;;;;;;;18.10;8.32;;;16.70;99.90;;;;;;5075645;28;20020;-78
2022/10/30 00:13:34;;;;;;;13.82;7.97;;;16.70;99.90;;;;;;5075728;28;20040;-78
2022/10/30 00:16:04;;;;;;;14.27;8.35;;;16.70;99.90;;;;;;5075572;28;20083;-79
2022/10/30 00:18:29;;;;;;;15.40;8.30;;;16.80;99.90;;;;;;5075142;28;20024;-78
2022/10/30 00:20:55;;;;;;;12.77;8.15;;;16.80;99.90;;;;;;5075501;28;20032;-78
2022/10/30 00:23:20;;;;;;;15.25;8.48;;;16.80;99.90;;;;;;5075837;28;20035;-79
2022/10/30 00:25:46;;;;;;;17.48;8.27;;;16.80;99.90;;;;;;5075234;28;20060;-78
2022/10/30 00:28:12;;;;;;;15.38;8.25;;;16.90;99.90;;;;;;5075492;28;20048;-78
2022/10/30 00:30:37;;;;;;;12.63;8.15;;;16.80;99.90;;;;;;5075266;28;20100;-78
2022/10/30 00:33:04;;;;;;;11.25;7.43;;;16.80;99.90;;;;;;5074592;28;20063;-78
2022/10/30 00:35:30;;;;;;;14.73;8.15;;;16.90;99.90;;;;;;5075385;28;20029;-78
2022/10/30 00:37:56;;;;;;;14.35;8.35;;;16.80;99.90;;;;;;5075000;28;20027;-78
2022/10/30 00:40:22;;;;;;;14.60;8.30;;;16.90;99.90;;;;;;5074072;28;20026;-78
2022/10/30 00:42:47;;;;;;;14.13;8.10;;;16.80;99.90;;;;;;5075015;28;20547;-78
2022/10/30 00:45:15;;;;;;;11.77;8.25;;;16.80;99.90;;;;;;5075113;28;20040;-78
2022/10/30 00:47:50;;;;;;;15.75;8.63;;;16.80;99.90;;;;;;5074664;28;20028;-78
2022/10/30 00:50:26;;;;;;;16.95;8.13;;;16.90;99.90;;;;;;5075083;28;20021;-78
2022/10/30 00:53:18;;;;;;;18.05;8.75;;;16.80;99.90;;;;;;5074914;28;20393;-78
2022/10/30 00:55:50;;;;;;;14.55;8.40;;;16.70;99.90;;;;;;5070705;28;20059;-79
2022/10/30 00:58:21;;;;;;;18.10;9.00;;;16.70;99.90;;;;;;5075111;28;20032;-78
2022/10/30 01:00:52;;;;;;;12.23;8.18;;;16.70;99.90;;;;;;5074876;28;20048;-78
2022/10/30 01:03:19;;;;;;;15.43;8.18;;;16.70;99.90;;;;;;5074342;28;20040;-78
2022/10/30 01:05:50;;;;;;;11.52;8.30;;;16.70;99.90;;;;;;5075151;28;20028;-79
2022/10/30 01:08:16;;;;;;;11.18;7.68;;;16.80;99.90;;;;;;5074554;28;20489;-78
2022/10/30 01:10:42;;;;;;;15.55;7.57;;;16.80;99.90;;;;;;5074672;28;20025;-78
2022/10/30 01:13:09;;;;;;;14.73;8.20;;;16.70;99.90;;;;;;5073911;28;20107;-78
2022/10/30 01:15:40;;;;;;;15.05;8.35;;;16.70;99.90;;;;;;5074818;28;20020;-78
2022/10/30 01:18:19;;;;;;;12.88;8.10;;;16.70;99.90;;;;;;5073166;28;20388;-78
2022/10/30 01:21:05;;;;;;;16.42;8.68;;;16.80;99.90;;;;;;5074450;28;20577;-78
2022/10/30 01:23:50;;;;;;;12.68;7.78;;;16.90;99.90;;;;;;5074249;28;20427;-78
2022/10/30 01:26:54;;;;;;;14.27;7.72;;;16.90;99.90;;;;;;5074430;28;20115;-78
2022/10/30 01:29:45;;;;;;;17.35;8.30;;;17.10;99.90;;;;;;4973237;28;20077;-78
2022/10/30 01:32:21;;;;;;;15.20;7.47;;;17.20;99.90;;;;;;4956492;28;20462;-78
2022/10/30 01:34:56;;;;;;;13.60;7.95;;;17.20;99.90;;;;;;4973002;28;20549;-78
2022/10/30 01:37:32;;;;;;;14.65;7.85;;;17.20;99.90;;;;;;4973176;28;20109;-78
2022/10/30 01:40:09;;;;;;;15.52;7.85;;;17.10;99.90;;;;;;4973087;28;20066;-78
2022/10/30 01:42:58;;;;;;;17.77;7.63;;;17.10;99.90;;;;;;4973460;28;20061;-78
2022/10/30 01:45:45;;;;;;;15.25;8.32;;;17.10;99.90;;;;;;4972491;28;20031;-79
2022/10/30 01:48:26;;;;;;;14.48;7.72;;;17.20;99.90;;;;;;4973106;28;20038;-78
2022/10/30 01:50:57;;;;;;;14.77;7.78;;;17.20;99.90;;;;;;4973043;28;20081;-78
2022/10/30 01:53:43;;;;;;;15.48;7.78;;;17.20;99.90;;;;;;4972869;28;20035;-78
2022/10/30 01:56:21;;;;;;;15.32;8.05;;;17.20;99.90;;;;;;4966389;28;20042;-78
2022/10/30 01:58:59;;;;;;;19.90;8.13;;;17.10;99.90;;;;;;4972877;28;20126;-78
2022/10/30 02:01:27;;;;;;;15.15;7.95;;;17.10;99.90;;;;;;4972535;28;20027;-78
2022/10/30 02:03:52;;;;;;;19.08;8.30;;;17.10;99.90;;;;;;4984282;28;20144;-78
2022/10/30 02:06:18;;;;;;;15.98;7.97;;;17.10;99.90;;;;;;5073445;28;20529;-78
2022/10/30 02:08:43;;;;;;;17.73;8.40;;;17.10;99.90;;;;;;5073902;28;20389;-78
2022/10/30 02:11:09;;;;;;;16.25;7.75;;;17.10;99.90;;;;;;5073519;28;20115;-78
2022/10/30 02:13:36;;;;;;;21.40;8.23;;;17.10;99.90;;;;;;5073464;28;20081;-78
2022/10/30 02:16:02;;;;;;;15.23;7.57;;;17.10;99.90;;;;;;5073262;28;20477;-78
2022/10/30 02:18:28;;;;;;;15.63;8.20;;;17.00;99.90;;;;;;5073371;28;20098;-78
2022/10/30 02:20:54;;;;;;;18.45;8.05;;;16.90;99.90;;;;;;5073142;28;20399;-78
2022/10/30 02:23:21;;;;;;;14.52;8.30;;;16.90;99.90;;;;;;5072883;28;20025;-78
2022/10/30 02:25:46;;;;;;;13.82;9.23;;;16.80;99.90;;;;;;5072247;28;20542;-78
2022/10/30 02:28:12;;;;;;;14.38;8.95;;;16.70;99.90;;;;;;5073597;28;20017;-78
2022/10/30 02:30:39;;;;;;;17.00;8.80;;;16.70;99.90;;;;;;5072655;28;20032;-78
2022/10/30 02:33:04;;;;;;;18.10;8.23;;;16.60;99.90;;;;;;5072578;28;20041;-78
2022/10/30 02:35:30;;;;;;;14.90;9.02;;;16.60;99.90;;;;;;5072815;28;20078;-78
2022/10/30 02:37:56;;;;;;;12.13;8.15;;;16.60;99.90;;;;;;5072126;28;20028;-78
2022/10/30 02:40:21;;;;;;;17.65;8.68;;;16.50;99.90;;;;;;5072470;28;20028;-78
2022/10/30 02:42:52;;;;;;;16.63;9.05;;;16.80;99.90;;;;;;5073155;28;20123;-78
2022/10/30 02:45:17;;;;;;;22.70;8.52;;;16.50;99.90;;;;;;5072358;28;20397;-78
2022/10/30 02:47:43;;;;;;;15.68;8.57;;;16.40;99.90;;;;;;5072710;28;20025;-78
2022/10/30 02:50:09;;;;;;;15.02;8.45;;;16.60;99.90;;;;;;5072711;28;20024;-78
2022/10/30 02:52:34;;;;;;;16.48;8.65;;;16.40;99.90;;;;;;5073007;28;20024;-78
2022/10/30 02:55:00;;;;;;;17.25;8.57;;;16.40;99.90;;;;;;5072512;28;20393;-78
2022/10/30 02:57:25;;;;;;;13.73;7.88;;;16.40;99.90;;;;;;5072451;28;20153;-78
2022/10/30 02:59:51;;;;;;;18.00;8.60;;;16.50;99.90;;;;;;5072159;28;20067;-78
2022/10/30 03:02:17;;;;;;;15.63;8.05;;;16.50;99.90;;;;;;5072503;28;20020;-78
2022/10/30 03:04:42;;;;;;;14.02;8.10;;;16.50;99.90;;;;;;5072690;28;20036;-78
2022/10/30 03:07:08;;;;;;;12.48;7.57;;;16.50;99.90;;;;;;5072678;28;20020;-78
2022/10/30 03:09:33;;;;;;;15.05;7.65;;;16.60;99.90;;;;;;5072340;28;20032;-78
2022/10/30 03:11:59;;;;;;;14.45;7.85;;;16.50;99.90;;;;;;5072348;28;20029;-78
2022/10/30 03:14:25;;;;;;;16.08;8.15;;;16.40;99.90;;;;;;5072025;28;20048;-78
2022/10/30 03:16:51;;;;;;;14.80;7.68;;;16.40;99.90;;;;;;5072726;28;20028;-79
2022/10/30 03:19:18;;;;;;;17.38;8.82;;;16.40;99.90;;;;;;5072072;28;20036;-78
2022/10/30 03:21:43;;;;;;;14.38;7.95;;;16.40;99.90;;;;;;5072454;28;20028;-78
2022/10/30 03:24:09;;;;;;;19.27;8.57;;;16.40;99.90;;;;;;5072243;28;20025;-78
2022/10/30 03:26:34;;;;;;;14.68;8.00;;;16.30;99.90;;;;;;5072176;28;20051;-78
2022/10/30 03:29:00;;;;;;;18.80;8.13;;;16.30;99.90;;;;;;5071699;28;20512;-78
2022/10/30 03:31:26;;;;;;;13.50;8.32;;;16.40;99.90;;;;;;5072067;28;20103;-78
2022/10/30 03:33:52;;;;;;;11.70;8.27;;;16.30;99.90;;;;;;5072004;28;20049;-78
2022/10/30 03:36:17;;;;;;;12.95;8.00;;;16.30;99.90;;;;;;5071754;28;20028;-78
2022/10/30 03:38:43;;;;;;;18.75;8.80;;;16.30;99.90;;;;;;5072012;28;20082;-78
2022/10/30 03:41:09;;;;;;;15.93;8.43;;;16.20;99.90;;;;;;5070290;28;20029;-78
2022/10/30 03:43:34;;;;;;;12.75;7.93;;;16.20;99.90;;;;;;5072433;28;20054;-78
2022/10/30 03:46:00;;;;;;;14.45;8.10;;;16.20;99.90;;;;;;5071916;28;20094;-78
2022/10/30 03:48:28;;;;;;;13.07;8.18;;;16.20;99.90;;;;;;5072186;28;20078;-78
2022/10/30 03:50:57;;;;;;;16.92;8.27;;;16.20;99.90;;;;;;5072106;28;20032;-78
2022/10/30 03:53:25;;;;;;;15.15;7.82;;;16.10;99.90;;;;;;5071922;28;20024;-78
2022/10/30 03:55:52;;;;;;;12.38;7.85;;;16.10;99.90;;;;;;5071705;28;20456;-78
2022/10/30 03:58:18;;;;;;;16.33;8.57;;;16.10;99.90;;;;;;5071721;28;20493;-78
2022/10/30 04:00:43;;;;;;;17.20;7.68;;;16.10;99.90;;;;;;5071898;28;20558;-78
2022/10/30 04:03:10;;;;;;;15.13;7.72;;;16.10;99.90;;;;;;5071674;28;20028;-78
2022/10/30 04:05:36;;;;;;;18.83;8.27;;;16.10;99.90;;;;;;5071800;28;20016;-78
2022/10/30 04:08:09;;;;;;;15.75;7.38;;;16.20;99.90;;;;;;5072090;28;20462;-78
2022/10/30 04:10:35;;;;;;;14.68;7.78;;;15.90;99.90;;;;;;5070133;28;20073;-78
2022/10/30 04:13:06;;;;;;;18.42;7.68;;;16.00;99.90;;;;;;5071124;28;20028;-78
2022/10/30 04:15:32;;;;;;;13.45;7.88;;;15.90;99.90;;;;;;5071686;28;20078;-79
2022/10/30 04:17:58;;;;;;;12.93;8.10;;;16.00;99.90;;;;;;5071738;28;20047;-77
2022/10/30 04:20:24;;;;;;;14.25;8.25;;;15.90;99.90;;;;;;5071735;28;20037;-78
2022/10/30 04:23:02;;;;;;;15.90;7.38;;;15.90;99.90;;;;;;5071620;28;20443;-78
2022/10/30 04:25:28;;;;;;;15.80;8.00;;;16.00;99.90;;;;;;5071303;28;20017;-78
2022/10/30 04:27:54;;;;;;;13.77;7.55;;;15.80;99.90;;;;;;5072095;28;20032;-78
2022/10/30 04:30:21;;;;;;;13.82;7.78;;;15.80;99.90;;;;;;5071503;28;20367;-78
2022/10/30 04:32:52;;;;;;;14.40;7.25;;;15.90;99.90;;;;;;5071522;28;20146;-78
2022/10/30 04:35:19;;;;;;;13.10;6.97;;;16.00;99.90;;;;;;5071428;28;20044;-78
2022/10/30 04:37:59;;;;;;;12.13;7.95;;;16.10;99.90;;;;;;5071326;28;20070;-78
2022/10/30 04:40:27;;;;;;;11.60;7.57;;;16.10;99.90;;;;;;5070947;28;20040;-77
2022/10/30 04:42:52;;;;;;;13.73;8.38;;;16.10;99.90;;;;;;5071501;28;20490;-78
2022/10/30 04:45:18;;;;;;;14.45;8.18;;;16.10;99.90;;;;;;5071234;28;20086;-78
2022/10/30 04:47:44;;;;;;;12.48;7.50;;;16.00;99.90;;;;;;5072668;28;20109;-78
2022/10/30 04:50:10;;;;;;;13.68;7.70;;;16.00;99.90;;;;;;5075233;28;20032;-78
2022/10/30 04:52:36;;;;;;;13.68;7.78;;;16.10;99.90;;;;;;5074935;28;20557;-77
2022/10/30 04:55:02;;;;;;;14.68;7.68;;;16.00;99.90;;;;;;5074712;28;20024;-78
2022/10/30 04:57:27;;;;;;;12.27;7.45;;;16.10;99.90;;;;;;5075208;28;20107;-78
2022/10/30 04:59:53;;;;;;;12.50;7.97;;;16.00;99.90;;;;;;5074766;28;20120;-78
2022/10/30 05:02:19;;;;;;;12.93;8.15;;;16.00;99.90;;;;;;5074782;28;20021;-78
2022/10/30 05:04:45;;;;;;;14.20;8.20;;;16.00;99.90;;;;;;5074829;28;20385;-78
2022/10/30 05:07:11;;;;;;;15.18;7.38;;;16.00;99.90;;;;;;5074967;28;20027;-78
2022/10/30 05:09:37;;;;;;;13.45;7.32;;;16.10;99.90;;;;;;5074171;28;20024;-78
2022/10/30 05:12:02;;;;;;;12.18;7.22;;;16.00;99.90;;;;;;5074874;28;20073;-78
2022/10/30 05:14:30;;;;;;;13.40;7.07;;;16.00;99.90;;;;;;5074659;28;20106;-78
2022/10/30 05:16:55;;;;;;;14.00;7.40;;;16.10;99.90;;;;;;5074579;28;20548;-78
2022/10/30 05:19:21;;;;;;;15.63;7.28;;;16.10;99.90;;;;;;5074425;28;20792;-77
2022/10/30 05:21:47;;;;;;;12.02;7.57;;;16.10;99.90;;;;;;5074310;28;20081;-78
2022/10/30 05:24:12;;;;;;;10.88;7.13;;;16.10;99.90;;;;;;5073845;28;20029;-78
2022/10/30 05:26:38;;;;;;;12.75;7.30;;;16.10;99.90;;;;;;5073814;28;20025;-79
2022/10/30 05:29:04;;;;;;;13.23;6.95;;;16.10;99.90;;;;;;5056089;28;20036;-78
2022/10/30 05:31:29;;;;;;;12.43;7.20;;;16.10;99.90;;;;;;5073872;28;20025;-80
2022/10/30 05:33:55;;;;;;;11.57;7.03;;;16.10;99.90;;;;;;5073996;28;20080;-79
2022/10/30 05:36:21;;;;;;;13.45;6.53;;;16.10;99.90;;;;;;5074064;28;20043;-79
2022/10/30 05:38:46;;;;;;;11.85;7.03;;;16.20;99.90;;;;;;5073660;28;20456;-80
2022/10/30 05:41:12;;;;;;;12.75;6.50;;;16.30;99.90;;;;;;5074287;28;20122;-79
2022/10/30 05:43:37;;;;;;;13.88;7.47;;;16.20;99.90;;;;;;5073856;28;20025;-78
2022/10/30 05:46:03;;;;;;;15.05;7.43;;;16.20;99.90;;;;;;5073929;28;20021;-81
2022/10/30 05:48:29;;;;;;;14.23;7.35;;;16.30;99.90;;;;;;5074328;28;20440;-80
2022/10/30 05:50:55;;;;;;;13.98;6.72;;;16.30;99.90;;;;;;5073779;28;20028;-81
2022/10/30 05:53:22;;;;;;;11.02;6.47;;;16.30;99.90;;;;;;5072213;28;20028;-81
2022/10/30 05:55:48;;;;;;;10.68;6.03;;;16.30;99.90;;;;;;5073955;28;20103;-81
2022/10/30 05:58:13;;;;;;;11.15;6.32;;;16.30;99.90;;;;;;5073278;28;20077;-81
2022/10/30 06:00:40;;;;;;;13.40;6.25;;;16.30;99.90;;;;;;5073720;28;20515;-81
2022/10/30 06:03:09;;;;;;;15.73;6.78;;;16.30;99.90;;;;;;5073917;28;20512;-81
2022/10/30 06:05:35;;;;;;;10.15;6.28;;;16.30;99.90;;;;;;5073708;28;20047;-82
2022/10/30 06:08:02;;;;;;;13.80;6.18;;;16.30;99.90;;;;;;5073249;28;20017;-80
2022/10/30 06:10:28;;;;;;;11.07;5.65;;;16.30;99.90;;;;;;5073319;28;20077;-80
2022/10/30 06:12:59;;;;;;;14.13;6.57;;;16.30;99.90;;;;;;5073284;28;20043;-80
2022/10/30 06:15:27;;;;;;;12.57;6.43;;;16.30;99.90;;;;;;5073532;28;20020;-79
2022/10/30 06:17:53;;;;;;;13.25;6.20;;;16.30;99.90;;;;;;5073465;28;20090;-80
2022/10/30 06:20:20;;;;;;;12.48;6.05;;;16.40;99.90;;;;;;5073303;28;20511;-80
2022/10/30 06:22:53;;;;;;;14.63;6.25;;;16.30;99.90;;;;;;5072657;28;20021;-80
2022/10/30 06:25:18;;;;;;;10.13;5.95;;;16.30;99.90;;;;;;5073418;28;20127;-80
2022/10/30 06:27:44;;;;;;;14.32;6.20;;;16.40;99.90;;;;;;5072945;28;20103;-80
2022/10/30 06:30:10;;;;;;;10.65;6.22;;;16.40;99.90;;;;;;5073230;28;20028;-80
2022/10/30 06:32:36;;;;;;;10.88;6.03;;;16.40;99.90;;;;;;5072959;28;20071;-80
2022/10/30 06:35:01;;;;;;;12.52;6.60;;;16.40;99.90;;;;;;5072628;28;20032;-80
2022/10/30 06:37:27;;;;;;;10.05;6.05;;;16.40;99.90;;;;;;5072570;28;20056;-80
2022/10/30 06:39:53;;;;;;;17.20;6.50;;;16.40;99.90;;;;;;5073219;28;20036;-80
2022/10/30 06:42:19;;;;;;;12.50;5.93;;;16.40;99.90;;;;;;5072709;28;20422;-80
2022/10/30 06:44:44;;;;;;;12.10;6.70;;;16.50;99.90;;;;;;5072842;28;20021;-80
2022/10/30 06:47:10;;;;;;;11.93;6.40;;;16.50;99.90;;;;;;5072455;28;20029;-80
2022/10/30 06:49:35;;;;;;;12.45;6.55;;;16.50;99.90;;;;;;5073077;28;20024;-80
2022/10/30 06:52:01;;;;;;;13.82;5.88;;;16.50;99.90;;;;;;5072496;28;20032;-80
2022/10/30 06:54:26;;;;;;;19.85;6.35;;;16.60;99.90;;;;;;5072597;28;20099;-80
2022/10/30 06:56:52;;;;;;;10.98;6.20;;;16.60;99.90;;;;;;5072423;28;20016;-80
2022/10/30 06:59:18;;;;;;;13.15;6.63;;;16.60;99.90;;;;;;5072323;28;20051;-80
2022/10/30 07:01:43;;;;;;;11.30;5.40;;;16.70;99.90;;;;;;5072415;28;20481;-80
2022/10/30 07:04:09;;;;;;;15.88;6.40;;;16.70;99.90;;;;;;5072273;28;20020;-80
2022/10/30 07:06:34;;;;;;;11.93;5.63;;;16.70;99.90;;;;;;5072297;28;20028;-80
2022/10/30 07:09:00;;;;;;;9.35;5.50;;;16.70;99.90;;;;;;5072363;28;20024;-80
2022/10/30 07:11:25;;;;;;;11.23;6.28;;;16.80;99.90;;;;;;5071675;28;20445;-80
2022/10/30 07:13:51;;;;;;;9.35;5.57;;;16.90;99.90;;;;;;5072653;28;20040;-80
2022/10/30 07:16:17;;;;;;;8.70;5.40;;;16.90;99.90;;;;;;5072203;28;20041;-80
2022/10/30 07:18:42;;;;;;;11.20;5.75;;;16.90;99.90;;;;;;5071691;28;20040;-80
2022/10/30 07:21:08;;;;;;;10.80;5.47;;;17.00;99.90;;;;;;5071945;28;20021;-80
2022/10/30 07:23:33;;;;;;;9.77;5.70;;;17.10;99.90;;;;;;5071615;28;20052;-80
2022/10/30 07:25:59;;;;;;;14.07;6.15;;;17.20;99.90;;;;;;5072357;28;20504;-80
2022/10/30 07:28:24;;;;;;;8.88;5.65;;;17.30;99.90;;;;;;5072139;28;20029;-80
2022/10/30 07:30:50;;;;;;;11.85;5.75;;;17.70;99.90;;;;;;5071823;28;20025;-80
2022/10/30 07:33:16;;;;;;;7.45;5.25;;;18.60;99.90;;;;;;5071398;28;20058;-80
2022/10/30 07:35:41;;;;;;;10.65;5.25;;;18.70;99.90;;;;;;5070877;28;20047;-80
2022/10/30 07:38:10;;;;;;;12.38;5.30;;;18.30;99.90;;;;;;5071928;28;20021;-80
2022/10/30 07:40:36;;;;;;;9.43;5.20;;;18.20;99.90;;;;;;5071943;28;20028;-80
2022/10/30 07:43:03;;;;;;;15.13;5.28;;;19.00;99.90;;;;;;5072362;28;20085;-81
2022/10/30 07:45:29;;;;;;;10.65;4.97;;;21.10;99.90;;;;;;5072033;28;20032;-81
2022/10/30 07:47:55;;;;;;;10.05;4.90;;;21.30;99.90;;;;;;5071483;28;20077;-82
2022/10/30 07:50:21;;;;;;;9.63;5.22;;;21.60;99.90;;;;;;5071874;28;20437;-82
2022/10/30 07:52:47;;;;;;;9.63;5.07;;;23.70;99.90;;;;;;5071946;28;20025;-82
2022/10/30 07:55:13;;;;;;;11.27;5.78;;;24.30;99.90;;;;;;5072276;28;20028;-80
2022/10/30 07:57:40;;;;;;;10.02;5.00;;;24.70;99.90;;;;;;5071751;28;20104;-80
2022/10/30 08:00:08;;;;;;;8.73;4.68;;;25.90;99.90;;;;;;5071858;28;20028;-80
2022/10/30 08:02:34;;;;;;;9.52;5.00;;;27.20;99.90;;;;;;5071253;28;20029;-80
2022/10/30 08:05:01;;;;;;;10.88;5.10;;;27.90;99.90;;;;;;5071759;28;20090;-80
2022/10/30 08:07:35;;;;;;;9.82;5.10;;;27.60;99.90;;;;;;5070772;28;20033;-81
2022/10/30 08:10:00;;;;;;;7.45;4.40;;;28.80;99.90;;;;;;5071923;28;20086;-80
2022/10/30 08:12:26;;;;;;;9.40;4.90;;;29.20;99.90;;;;;;5071171;28;20028;-80
2022/10/30 08:14:53;;;;;;;8.05;4.30;;;30.50;99.90;;;;;;5071562;28;20505;-85
2022/10/30 08:17:19;;;;;;;8.95;4.97;;;30.90;99.90;;;;;;5070911;28;20032;-84
2022/10/30 08:19:45;;;;;;;6.07;4.13;;;30.30;99.90;;;;;;5071610;28;20040;-85
2022/10/30 08:22:11;;;;;;;8.82;4.60;;;31.00;99.90;;;;;;5072107;28;20082;-84
2022/10/30 08:24:37;;;;;;;13.52;5.50;;;31.50;99.90;;;;;;5075682;28;20428;-85
2022/10/30 08:27:03;;;;;;;9.75;4.75;;;32.20;99.90;;;;;;5075486;28;20069;-84
2022/10/30 08:29:29;;;;;;;10.13;4.68;;;31.50;99.90;;;;;;5075390;28;20024;-84
2022/10/30 08:31:55;;;;;;;12.07;4.90;;;32.00;99.90;;;;;;5074918;28;20023;-84
2022/10/30 08:34:20;;;;;;;8.65;5.00;;;31.10;99.90;;;;;;5074837;28;20045;-84
2022/10/30 08:36:50;;;;;;;12.07;5.15;;;31.60;99.90;;;;;;5075328;28;20031;-85
2022/10/30 08:39:19;;;;;;;10.65;4.88;;;31.80;99.90;;;;;;5075322;28;20492;-85
2022/10/30 08:41:45;;;;;;;7.70;4.63;;;32.40;99.90;;;;;;5075101;28;20035;-85
2022/10/30 08:44:11;;;;;;;10.85;4.43;;;33.60;99.90;;;;;;5075239;28;20111;-85
2022/10/30 08:46:37;;;;;;;7.00;4.90;;;32.90;99.90;;;;;;5075001;28;20029;-85
2022/10/30 08:49:03;;;;;;;11.82;4.57;;;33.80;99.90;;;;;;5074816;28;20021;-84
2022/10/30 08:51:32;;;;;;;9.82;4.75;;;33.80;99.90;;;;;;5074986;28;20028;-83
2022/10/30 08:53:58;;;;;;;8.73;4.47;;;34.40;99.90;;;;;;5074875;28;20028;-84
2022/10/30 08:56:24;;;;;;;9.82;4.50;;;33.50;99.90;;;;;;5074299;28;20488;-87
2022/10/30 08:58:50;;;;;;;11.23;4.75;;;34.10;99.90;;;;;;5075044;28;20045;-88
2022/10/30 09:01:17;;;;;;;9.88;4.57;;;34.40;99.90;;;;;;5074489;28;20381;-89
2022/10/30 09:03:43;;;;;;;11.52;4.38;;;33.80;99.90;;;;;;5075459;28;20047;-89
2022/10/30 09:06:09;;;;;;;8.52;4.55;;;36.00;99.90;;;;;;5075829;28;20021;-88
2022/10/30 09:08:35;;;;;;;10.00;4.70;;;34.50;99.90;;;;;;5075229;28;20112;-89
2022/10/30 09:11:00;;;;;;;9.43;4.53;;;37.20;99.90;;;;;;5074272;28;20427;-90
2022/10/30 09:13:26;;;;;;;7.72;4.53;;;35.10;99.90;;;;;;5075027;28;20515;-87
2022/10/30 09:15:52;;;;;;;6.45;4.10;;;36.70;99.90;;;;;;5073649;28;20579;-87
2022/10/30 09:18:18;;;;;;;7.97;3.97;;;35.20;99.90;;;;;;5074756;28;20082;-87
2022/10/30 09:20:47;;;;;;;9.02;4.03;;;34.10;99.90;;;;;;5056837;28;20040;-87
2022/10/30 09:23:12;;;;;;;8.88;3.90;;;33.50;99.90;;;;;;5075112;28;20106;-88
2022/10/30 09:25:38;;;;;;;10.20;4.90;;;34.60;99.90;;;;;;5074850;28;20032;-87
2022/10/30 09:28:04;;;;;;;10.50;3.92;;;35.60;99.90;;;;;;5072486;28;20024;-87
2022/10/30 09:30:29;;;;;;;10.23;4.40;;;35.30;99.90;;;;;;5069406;28;20029;-87
2022/10/30 09:32:57;;;;;;;6.47;3.55;;;33.90;99.90;;;;;;5068462;28;20049;-87
2022/10/30 09:35:22;;;;;;;10.65;4.00;;;32.20;99.90;;;;;;5068269;28;20032;-89
2022/10/30 09:37:48;;;;;;;9.88;4.20;;;34.90;99.90;;;;;;5069570;28;20681;-88
2022/10/30 09:40:20;;;;;;;7.93;3.67;;;34.40;99.90;;;;;;5068998;28;20052;-89
2022/10/30 09:42:47;;;;;;;11.45;4.28;;;34.60;99.90;;;;;;5070765;28;20584;-88
2022/10/30 09:45:46;;;;;;;8.75;4.35;;;34.70;99.90;;;;;;5069482;28;20375;-90
2022/10/30 09:48:33;;;;;;;9.60;4.18;;;35.40;99.90;;;;;;5069104;28;20036;-90
2022/10/30 09:51:19;;;;;;;9.20;3.90;;;35.80;99.90;;;;;;5069087;28;20582;-88
2022/10/30 09:54:04;;;;;;;9.80;3.80;;;35.60;99.90;;;;;;5069556;28;20039;-85
2022/10/30 09:56:37;;;;;;;5.90;4.32;;;34.80;99.90;;;;;;5067813;28;20358;-85
2022/10/30 09:59:35;;;;;;;9.00;4.20;;;34.20;99.90;;;;;;5067452;28;20044;-85
2022/10/30 10:02:18;;;;;;;8.18;3.83;;;36.70;99.90;;;;;;5069370;28;20067;-90
2022/10/30 10:04:48;;;;;;;7.57;3.78;;;36.90;99.90;;;;;;5068739;28;20016;-87
2022/10/30 10:07:26;;;;;;;8.88;4.30;;;34.10;99.90;;;;;;5070006;28;20024;-86
2022/10/30 10:09:58;;;;;;;7.28;4.00;;;36.90;99.90;;;;;;5072933;28;20064;-86
2022/10/30 10:12:27;;;;;;;8.30;3.72;;;34.90;99.90;;;;;;5072942;28;20531;-88
2022/10/30 10:14:55;;;;;;;8.27;3.85;;;37.00;99.90;;;;;;5072986;28;20028;-87
2022/10/30 10:17:33;;;;;;;8.48;4.03;;;37.50;99.90;;;;;;5073851;28;20017;-86
2022/10/30 10:20:01;;;;;;;9.90;3.72;;;38.30;99.90;;;;;;5072526;28;20032;-86
2022/10/30 10:22:40;;;;;;;6.80;3.42;;;39.00;99.90;;;;;;5072901;28;20032;-87
2022/10/30 10:25:14;;;;;;;8.75;3.60;;;38.80;99.90;;;;;;5073382;28;20037;-87
2022/10/30 10:27:58;;;;;;;6.55;3.63;;;38.90;99.90;;;;;;5072760;28;20066;-86
2022/10/30 10:30:29;;;;;;;10.52;3.85;;;39.70;99.90;;;;;;5066829;28;20046;-85
2022/10/30 10:33:00;;;;;;;9.88;3.60;;;37.50;99.90;;;;;;5073148;28;20447;-85
2022/10/30 10:35:47;;;;;;;6.15;3.40;;;36.00;99.90;;;;;;5072384;28;20378;-85
2022/10/30 10:38:18;;;;;;;6.60;3.10;;;35.50;99.90;;;;;;5072788;28;20037;-85
2022/10/30 10:41:18;;;;;;;3.38;2.58;;;35.00;99.90;;;;;;5072760;28;20048;-85
2022/10/30 10:44:01;;;;;;;10.30;3.40;;;33.80;99.90;;;;;;5010373;28;20069;-85
2022/10/30 10:47:09;;;;;;;8.45;3.30;;;34.60;99.90;;;;;;5009937;28;20046;-84
2022/10/30 10:50:02;;;;;;;9.15;3.88;;;33.60;99.90;;;;;;5011306;28;20054;-84
2022/10/30 10:52:41;;;;;;;8.18;4.82;;;34.70;99.90;;;;;;5012546;28;20068;-83
2022/10/30 10:55:18;;;;;;;13.13;7.57;;;35.50;99.90;;;;;;5030661;28;20026;-82
2022/10/30 10:57:44;;;;;;;9.05;3.45;;;35.70;99.90;;;;;;5028903;28;20210;-83
2022/10/30 11:00:17;;;;;;;7.75;3.30;;;35.50;99.90;;;;;;5028168;28;20594;-82
2022/10/30 11:02:46;;;;;;;5.85;3.55;;;35.40;99.90;;;;;;5010123;28;20065;-87
2022/10/30 11:05:17;;;;;;;6.45;3.17;;;33.60;99.90;;;;;;5010864;28;20088;-89
2022/10/30 11:07:48;;;;;;;9.05;3.70;;;33.40;99.90;;;;;;5010821;28;20080;-88
2022/10/30 11:10:17;;;;;;;6.00;3.40;;;35.30;99.90;;;;;;5012027;28;20026;-90
2022/10/30 11:12:42;;;;;;;9.68;4.35;;;35.70;99.90;;;;;;5017336;28;20053;-86
2022/10/30 11:15:36;;;;;;;8.20;4.05;;;35.30;99.90;;;;;;5030296;28;20061;-88
2022/10/30 11:18:04;;;;;;;10.10;3.85;;;34.90;99.90;;;;;;5028486;28;20041;-83
2022/10/30 11:20:43;;;;;;;8.57;3.90;;;35.30;99.90;;;;;;5071952;28;20122;-89
2022/10/30 11:23:38;;;;;;;10.13;4.18;;;35.40;99.90;;;;;;5072106;28;20020;-89
2022/10/30 11:26:28;;;;;;;7.75;3.60;;;35.40;99.90;;;;;;5058484;28;20024;-86
2022/10/30 11:29:09;;;;;;;7.68;3.90;;;34.00;99.90;;;;;;5072623;28;20016;-89
2022/10/30 11:31:39;;;;;;;8.15;4.00;;;34.50;99.90;;;;;;5071600;28;20410;-88
2022/10/30 11:34:21;;;;;;;6.97;3.38;;;34.50;99.90;;;;;;5071509;28;20067;-87
2022/10/30 11:36:52;;;;;;;8.75;3.78;;;35.10;99.90;;;;;;5070686;28;20442;-88
2022/10/30 11:39:32;;;;;;;6.40;3.75;;;35.40;99.90;;;;;;5063854;28;20039;-88
2022/10/30 11:42:17;;;;;;;11.32;4.07;;;34.60;99.90;;;;;;5051749;28;20033;-88
2022/10/30 11:44:49;;;;;;;8.85;3.63;;;35.40;99.90;;;;;;5062974;28;20389;-83
2022/10/30 11:47:17;;;;;;;7.57;3.33;;;35.40;99.90;;;;;;5071481;28;20028;-83
2022/10/30 11:49:56;;;;;;;8.60;3.63;;;35.70;99.90;;;;;;5071804;28;20032;-84
2022/10/30 11:52:24;;;;;;;8.75;3.60;;;35.50;99.90;;;;;;5072174;28;20040;-84
2022/10/30 11:54:54;;;;;;;7.68;3.90;;;33.80;99.90;;;;;;5070442;28;20020;-86
2022/10/30 11:57:26;;;;;;;8.63;3.88;;;35.20;99.90;;;;;;5072619;28;20036;-87
2022/10/30 11:59:53;;;;;;;10.05;4.00;;;34.20;99.90;;;;;;5075660;28;20499;-85
2022/10/30 12:02:26;;;;;;;6.47;3.50;;;35.10;99.90;;;;;;5073694;28;20025;-86
2022/10/30 12:04:53;;;;;;;8.65;3.90;;;33.80;99.90;;;;;;5075423;28;20516;-84
2022/10/30 12:07:22;;;;;;;7.50;3.53;;;36.20;99.90;;;;;;5077257;28;20032;-86
2022/10/30 12:09:48;;;;;;;6.78;3.55;;;36.10;99.90;;;;;;5075749;28;20033;-87
2022/10/30 12:12:27;;;;;;;6.60;3.03;;;36.20;99.90;;;;;;5075015;28;20029;-87
2022/10/30 12:14:54;;;;;;;8.45;3.72;;;35.70;99.90;;;;;;5075410;28;20061;-87
2022/10/30 12:17:20;;;;;;;6.15;3.60;;;34.60;99.90;;;;;;5076183;28;20040;-87
2022/10/30 12:19:54;;;;;;;6.85;3.25;;;32.90;99.90;;;;;;5075861;28;20048;-87
2022/10/30 12:22:33;;;;;;;11.25;4.10;;;33.00;99.90;;;;;;5074619;28;20017;-87
2022/10/30 12:25:02;;;;;;;8.23;3.72;;;33.40;99.90;;;;;;5074678;28;20039;-86
2022/10/30 12:27:30;;;;;;;8.85;3.67;;;33.50;99.90;;;;;;5076037;28;20024;-87
2022/10/30 12:30:18;;;;;;;5.85;3.55;;;34.10;99.90;;;;;;5075019;28;20012;-87
2022/10/30 12:33:17;;;;;;;9.75;3.72;;;33.60;99.90;;;;;;5075528;28;20127;-87
2022/10/30 12:35:55;;;;;;;11.60;3.70;;;34.30;99.90;;;;;;5070821;28;20061;-88
2022/10/30 12:38:53;;;;;;;9.00;4.18;;;33.90;99.90;;;;;;5074581;28;20587;-87
2022/10/30 12:41:25;;;;;;;9.65;3.53;;;33.50;99.90;;;;;;5076001;28;20028;-87
2022/10/30 12:44:17;;;;;;;10.52;3.90;;;34.80;99.90;;;;;;5073736;28;20024;-87
2022/10/30 12:47:19;;;;;;;10.63;3.92;;;34.50;99.90;;;;;;5074801;28;20033;-87
2022/10/30 12:49:56;;;;;;;10.90;4.40;;;33.70;99.90;;;;;;5075978;28;20094;-86
2022/10/30 12:52:36;;;;;;;9.15;4.00;;;33.40;99.90;;;;;;5073099;28;20488;-88
2022/10/30 12:55:25;;;;;;;10.27;4.20;;;34.70;99.90;;;;;;5074962;28;20111;-87